Time;durP1;ratioP1;P1;durP2;ratioP2;P2;SDS_P1;SDS_P2;PMS_P1;PMS_P2;Temp;Humidity;BMP_temperature;BMP_pressure;BME280_temperature;BME280_humidity;BME280_pressure;Samples;Min_cycle;Max_cycle;Signal;HPM_P1;HPM_P2
2021/06/09 00:00:00;;;;;;;4.53;4.10;;;;;;;;;;5048067;28;20464;-67
2021/06/09 00:02:27;;;;;;;4.70;4.33;;;;;;;;;;5032606;28;20453;-65
2021/06/09 00:04:54;;;;;;;5.00;4.60;;;;;;;;;;5047951;28;20509;-65
2021/06/09 00:07:21;;;;;;;5.33;4.93;;;;;;;;;;5051368;28;20494;-65
2021/06/09 00:09:47;;;;;;;4.63;4.33;;;;;;;;;;5052235;28;20451;-65
2021/06/09 00:12:15;;;;;;;5.07;4.70;;;;;;;;;;5051913;28;20443;-66
2021/06/09 00:14:42;;;;;;;5.13;4.73;;;;;;;;;;5052662;28;20456;-65
2021/06/09 00:17:08;;;;;;;5.20;4.70;;;;;;;;;;5051802;28;20467;-66
2021/06/09 00:19:35;;;;;;;8.23;4.63;;;;;;;;;;5052228;28;20452;-67
2021/06/09 00:22:02;;;;;;;5.03;4.73;;;;;;;;;;5052427;28;20454;-66
2021/06/09 00:24:28;;;;;;;4.90;4.60;;;;;;;;;;5051581;28;20476;-65
2021/06/09 00:26:55;;;;;;;5.20;4.80;;;;;;;;;;5051687;28;20464;-65
2021/06/09 00:29:23;;;;;;;5.40;5.00;;;;;;;;;;5052519;28;20852;-66
2021/06/09 00:31:50;;;;;;;5.67;5.27;;;;;;;;;;5051684;28;20795;-65
2021/06/09 00:34:17;;;;;;;4.80;4.50;;;;;;;;;;5051604;28;20440;-65
2021/06/09 00:36:43;;;;;;;5.40;4.90;;;;;;;;;;5050841;28;20494;-65
2021/06/09 00:39:10;;;;;;;5.87;5.47;;;;;;;;;;5051076;28;20964;-66
2021/06/09 00:41:37;;;;;;;5.63;5.20;;;;;;;;;;5051849;28;20444;-65
2021/06/09 00:44:05;;;;;;;5.50;5.20;;;;;;;;;;5051440;28;20804;-65
2021/06/09 00:46:33;;;;;;;5.47;5.07;;;;;;;;;;5050508;28;20475;-66
2021/06/09 00:49:00;;;;;;;5.80;5.40;;;;;;;;;;5051705;28;20447;-67
2021/06/09 00:51:26;;;;;;;5.80;5.40;;;;;;;;;;5051659;28;20858;-65
2021/06/09 00:53:55;;;;;;;8.90;5.43;;;;;;;;;;5051517;28;20447;-65
2021/06/09 00:56:23;;;;;;;5.60;5.20;;;;;;;;;;5050801;28;20892;-65
2021/06/09 00:58:50;;;;;;;5.97;5.57;;;;;;;;;;5051569;28;20456;-65
2021/06/09 01:01:18;;;;;;;5.70;5.27;;;;;;;;;;5051049;28;20452;-65
2021/06/09 01:03:46;;;;;;;6.20;5.60;;;;;;;;;;5051362;28;20479;-66
2021/06/09 01:06:12;;;;;;;5.17;4.87;;;;;;;;;;5050220;28;20509;-66
2021/06/09 01:08:40;;;;;;;8.20;5.20;;;;;;;;;;5051182;28;20459;-65
2021/06/09 01:11:08;;;;;;;5.67;5.27;;;;;;;;;;5054814;28;20451;-65
2021/06/09 01:13:34;;;;;;;5.97;5.57;;;;;;;;;;5055095;28;20848;-67
2021/06/09 01:16:01;;;;;;;6.47;5.50;;;;;;;;;;5054034;28;20978;-65
2021/06/09 01:18:28;;;;;;;5.90;5.50;;;;;;;;;;5054711;28;20505;-65
2021/06/09 01:20:57;;;;;;;6.30;5.70;;;;;;;;;;5054915;28;20862;-65
2021/06/09 01:23:26;;;;;;;6.27;5.77;;;;;;;;;;5053452;28;20488;-65
2021/06/09 01:25:52;;;;;;;6.23;5.73;;;;;;;;;;5053788;28;20561;-65
2021/06/09 01:28:19;;;;;;;5.70;5.37;;;;;;;;;;5054258;28;20451;-65
2021/06/09 01:30:46;;;;;;;5.60;5.23;;;;;;;;;;5054457;28;20818;-66
2021/06/09 01:33:13;;;;;;;6.20;5.80;;;;;;;;;;5054498;28;20509;-65
2021/06/09 01:35:40;;;;;;;6.20;5.80;;;;;;;;;;5053864;28;20443;-65
2021/06/09 01:38:07;;;;;;;6.10;5.50;;;;;;;;;;5054466;28;20447;-67
2021/06/09 01:40:35;;;;;;;6.53;6.03;;;;;;;;;;5054462;28;20451;-65
2021/06/09 01:43:03;;;;;;;7.00;6.50;;;;;;;;;;5053884;28;20491;-66
2021/06/09 01:45:30;;;;;;;6.67;6.17;;;;;;;;;;5053648;28;20818;-66
2021/06/09 01:47:57;;;;;;;6.23;5.83;;;;;;;;;;5054515;28;20495;-65
2021/06/09 01:50:24;;;;;;;6.80;6.30;;;;;;;;;;5054391;28;20810;-65
2021/06/09 01:52:52;;;;;;;6.63;6.17;;;;;;;;;;5054483;28;20821;-65
2021/06/09 01:55:20;;;;;;;7.07;6.57;;;;;;;;;;5053683;28;20608;-65
2021/06/09 01:57:48;;;;;;;6.60;6.10;;;;;;;;;;5053813;28;20467;-65
2021/06/09 02:00:16;;;;;;;6.53;6.03;;;;;;;;;;5054067;28;20440;-66
2021/06/09 02:02:43;;;;;;;7.10;6.60;;;;;;;;;;5054081;28;20866;-65
2021/06/09 02:05:11;;;;;;;6.30;5.90;;;;;;;;;;5053220;28;20818;-67
2021/06/09 02:07:38;;;;;;;6.90;6.30;;;;;;;;;;5053301;28;20472;-66
2021/06/09 02:10:07;;;;;;;7.73;7.10;;;;;;;;;;5053756;28;20791;-65
2021/06/09 02:12:34;;;;;;;6.77;6.27;;;;;;;;;;5053729;28;20452;-65
2021/06/09 02:15:02;;;;;;;6.60;6.17;;;;;;;;;;5053843;28;20534;-66
2021/06/09 02:17:28;;;;;;;6.23;5.83;;;;;;;;;;5053051;28;20464;-66
2021/06/09 02:19:55;;;;;;;6.83;6.43;;;;;;;;;;5053667;28;20493;-65
2021/06/09 02:22:22;;;;;;;6.70;6.10;;;;;;;;;;5053944;28;20458;-67
2021/06/09 02:24:48;;;;;;;6.40;6.00;;;;;;;;;;5053381;28;20450;-66
2021/06/09 02:27:15;;;;;;;6.73;6.13;;;;;;;;;;5052640;28;20474;-66
2021/06/09 02:29:42;;;;;;;6.40;6.00;;;;;;;;;;5053574;28;20448;-65
2021/06/09 02:32:10;;;;;;;6.70;6.30;;;;;;;;;;5053524;28;20451;-65
2021/06/09 02:34:37;;;;;;;7.23;6.63;;;;;;;;;;5053156;28;20483;-66
2021/06/09 02:37:04;;;;;;;6.60;6.20;;;;;;;;;;5052636;28;20463;-64
2021/06/09 02:39:31;;;;;;;7.50;6.90;;;;;;;;;;5053074;28;21016;-66
2021/06/09 02:41:57;;;;;;;6.77;6.30;;;;;;;;;;5053560;28;20458;-65
2021/06/09 02:44:24;;;;;;;6.83;6.30;;;;;;;;;;5053253;28;20446;-65
2021/06/09 02:46:53;;;;;;;7.50;6.90;;;;;;;;;;5052647;28;20472;-66
2021/06/09 02:49:23;;;;;;;7.50;6.90;;;;;;;;;;5053163;28;20538;-65
2021/06/09 02:51:59;;;;;;;6.87;6.37;;;;;;;;;;5052966;28;20440;-65
2021/06/09 02:54:31;;;;;;;6.47;6.00;;;;;;;;;;5052821;28;20851;-65
2021/06/09 02:57:02;;;;;;;6.87;6.13;;;;;;;;;;5052169;28;20498;-66
2021/06/09 02:59:32;;;;;;;6.97;6.47;;;;;;;;;;5052838;28;20463;-65
2021/06/09 03:02:03;;;;;;;7.23;6.73;;;;;;;;;;5052721;28;20456;-66
2021/06/09 03:04:35;;;;;;;7.10;6.70;;;;;;;;;;5052574;28;20455;-65
2021/06/09 03:07:05;;;;;;;6.70;6.30;;;;;;;;;;5051913;28;20486;-66
2021/06/09 03:09:34;;;;;;;6.70;6.30;;;;;;;;;;5052688;28;20454;-66
2021/06/09 03:12:08;;;;;;;6.93;6.53;;;;;;;;;;5052693;28;20448;-65
2021/06/09 03:17:28;;;;;;;6.47;6.07;;;;;;;;;;5051576;28;20816;-65
2021/06/09 03:20:03;;;;;;;6.70;6.30;;;;;;;;;;5052442;28;20951;-65
2021/06/09 03:22:33;;;;;;;6.80;6.30;;;;;;;;;;5052489;28;20451;-65
2021/06/09 03:25:00;;;;;;;6.83;6.43;;;;;;;;;;5052508;28;20436;-66
2021/06/09 03:27:29;;;;;;;7.00;6.50;;;;;;;;;;5051868;28;20464;-66
2021/06/09 03:29:57;;;;;;;7.50;7.00;;;;;;;;;;5052523;28;20463;-65
2021/06/09 03:32:27;;;;;;;7.63;7.13;;;;;;;;;;5052487;28;20494;-66
2021/06/09 03:34:55;;;;;;;7.00;6.60;;;;;;;;;;5052034;28;20491;-66
2021/06/09 03:37:25;;;;;;;7.17;6.67;;;;;;;;;;5051486;28;20475;-66
2021/06/09 03:39:56;;;;;;;6.40;6.00;;;;;;;;;;5052184;28;20454;-65
2021/06/09 03:42:23;;;;;;;6.80;6.30;;;;;;;;;;5051935;28;20957;-65
2021/06/09 03:44:52;;;;;;;6.97;6.57;;;;;;;;;;5052296;28;20448;-67
2021/06/09 03:47:20;;;;;;;7.13;6.63;;;;;;;;;;5051507;28;20463;-66
2021/06/09 03:49:47;;;;;;;7.60;7.10;;;;;;;;;;5052361;28;20456;-65
2021/06/09 03:52:14;;;;;;;7.50;7.00;;;;;;;;;;5051758;28;20956;-65
2021/06/09 03:54:43;;;;;;;6.93;6.43;;;;;;;;;;5052058;28;20479;-66
2021/06/09 03:57:09;;;;;;;7.93;7.33;;;;;;;;;;5051585;28;20464;-65
2021/06/09 03:59:36;;;;;;;6.50;6.10;;;;;;;;;;5051970;28;20448;-65
2021/06/09 04:02:06;;;;;;;7.10;6.70;;;;;;;;;;5051890;28;20818;-66
2021/06/09 04:04:34;;;;;;;7.00;6.60;;;;;;;;;;5052122;28;20458;-66
2021/06/09 04:07:01;;;;;;;7.60;6.90;;;;;;;;;;5085377;22;21011;-65
2021/06/09 04:09:28;;;;;;;7.93;7.37;;;;;;;;;;5085348;28;20468;-70
2021/06/09 04:11:57;;;;;;;8.33;7.53;;;;;;;;;;5092121;28;20448;-69
2021/06/09 04:14:25;;;;;;;8.10;7.40;;;;;;;;;;5092059;28;20525;-69
2021/06/09 04:16:54;;;;;;;7.70;7.10;;;;;;;;;;5091358;28;20469;-70
2021/06/09 04:19:22;;;;;;;7.43;6.93;;;;;;;;;;5092386;28;20452;-70
2021/06/09 04:21:49;;;;;;;7.67;7.20;;;;;;;;;;5092015;28;20968;-69
2021/06/09 04:24:16;;;;;;;8.60;7.90;;;;;;;;;;5092301;28;20445;-70
2021/06/09 04:26:43;;;;;;;8.30;7.57;;;;;;;;;;5091222;28;20470;-70
2021/06/09 04:29:11;;;;;;;8.00;7.50;;;;;;;;;;5095907;28;20740;-69
2021/06/09 04:31:37;;;;;;;7.30;6.90;;;;;;;;;;5092827;28;20451;-70
2021/06/09 04:34:04;;;;;;;7.27;6.87;;;;;;;;;;5091896;28;20485;-70
2021/06/09 04:36:30;;;;;;;7.50;7.00;;;;;;;;;;5091159;28;20461;-69
2021/06/09 04:38:57;;;;;;;6.97;6.57;;;;;;;;;;5092054;28;20449;-67
2021/06/09 04:41:26;;;;;;;7.40;6.90;;;;;;;;;;5092356;28;20469;-69
2021/06/09 04:43:53;;;;;;;7.13;6.73;;;;;;;;;;5092102;28;20439;-69
2021/06/09 04:46:22;;;;;;;7.60;7.10;;;;;;;;;;5095028;28;20473;-70
2021/06/09 04:48:59;;;;;;;7.30;6.80;;;;;;;;;;5095545;28;20456;-70
2021/06/09 04:51:26;;;;;;;7.80;7.30;;;;;;;;;;5094994;28;20944;-68
2021/06/09 04:53:53;;;;;;;7.53;7.03;;;;;;;;;;5095430;28;20490;-70
2021/06/09 04:56:19;;;;;;;6.47;6.07;;;;;;;;;;5095165;28;20598;-70
2021/06/09 04:58:46;;;;;;;7.03;6.63;;;;;;;;;;5095642;28;20510;-69
2021/06/09 05:01:12;;;;;;;6.80;6.20;;;;;;;;;;5095794;28;20479;-70
2021/06/09 05:03:41;;;;;;;6.23;5.83;;;;;;;;;;5094782;28;20471;-70
2021/06/09 05:06:07;;;;;;;5.90;5.50;;;;;;;;;;5094858;28;20441;-70
2021/06/09 05:08:34;;;;;;;6.33;5.70;;;;;;;;;;5095512;28;20460;-67
2021/06/09 05:11:01;;;;;;;6.40;5.90;;;;;;;;;;5095255;28;20461;-70
2021/06/09 05:13:31;;;;;;;7.23;5.00;;;;;;;;;;5095012;28;20480;-68
2021/06/09 05:16:00;;;;;;;6.17;5.00;;;;;;;;;;5093814;28;20884;-68
2021/06/09 05:18:27;;;;;;;4.70;4.30;;;;;;;;;;5094952;28;20441;-69
2021/06/09 05:20:56;;;;;;;7.67;4.80;;;;;;;;;;5094824;28;20454;-69
2021/06/09 05:23:25;;;;;;;3.97;3.57;;;;;;;;;;5094748;28;20959;-69
2021/06/09 05:25:52;;;;;;;11.63;4.27;;;;;;;;;;5093877;28;20446;-70
2021/06/09 05:28:21;;;;;;;3.77;3.40;;;;;;;;;;5094392;28;20494;-69
2021/06/09 05:30:47;;;;;;;3.53;3.23;;;;;;;;;;5094721;28;20458;-70
2021/06/09 05:33:14;;;;;;;4.90;3.77;;;;;;;;;;5094527;28;20450;-70
2021/06/09 05:35:41;;;;;;;4.67;3.80;;;;;;;;;;5093700;28;20502;-69
2021/06/09 05:38:09;;;;;;;5.03;3.47;;;;;;;;;;5094461;28;20488;-69
2021/06/09 05:40:36;;;;;;;6.17;3.63;;;;;;;;;;5094379;28;20442;-70
2021/06/09 05:43:02;;;;;;;5.90;3.50;;;;;;;;;;5093967;28;20458;-70
2021/06/09 05:45:30;;;;;;;3.70;3.33;;;;;;;;;;5093599;28;20449;-69
2021/06/09 05:47:56;;;;;;;4.33;3.13;;;;;;;;;;5093852;28;20487;-69
2021/06/09 05:50:24;;;;;;;4.50;3.63;;;;;;;;;;5094296;28;20442;-69
2021/06/09 05:52:51;;;;;;;4.30;3.07;;;;;;;;;;5093920;28;20450;-70
2021/06/09 05:55:20;;;;;;;3.20;3.00;;;;;;;;;;5092934;28;20485;-70
2021/06/09 05:57:46;;;;;;;4.43;2.90;;;;;;;;;;5093592;28;20780;-70
2021/06/09 06:00:14;;;;;;;5.17;2.70;;;;;;;;;;5093423;28;20456;-69
2021/06/09 06:02:41;;;;;;;5.80;3.20;;;;;;;;;;5094084;28;20450;-70
2021/06/09 06:05:08;;;;;;;4.50;2.90;;;;;;;;;;5094070;28;20446;-68
2021/06/09 06:07:36;;;;;;;4.60;2.67;;;;;;;;;;5097212;28;20474;-70
2021/06/09 06:10:04;;;;;;;2.60;2.40;;;;;;;;;;5093915;28;20442;-70
2021/06/09 06:12:32;;;;;;;4.43;2.67;;;;;;;;;;5093811;28;20438;-70
2021/06/09 06:14:59;;;;;;;3.67;2.80;;;;;;;;;;5093809;28;20512;-70
2021/06/09 06:17:26;;;;;;;2.80;2.47;;;;;;;;;;5092837;28;20466;-70
2021/06/09 06:19:53;;;;;;;3.03;2.83;;;;;;;;;;5094178;28;20456;-69
2021/06/09 06:22:20;;;;;;;3.60;2.97;;;;;;;;;;5093824;28;21067;-70
2021/06/09 06:24:48;;;;;;;2.90;2.60;;;;;;;;;;5093424;28;20933;-69
2021/06/09 06:27:15;;;;;;;3.10;2.47;;;;;;;;;;5093445;28;20487;-70
2021/06/09 06:29:44;;;;;;;4.80;2.40;;;;;;;;;;5094419;28;20469;-67
2021/06/09 06:32:12;;;;;;;4.63;2.27;;;;;;;;;;5095217;28;20488;-70
2021/06/09 06:34:41;;;;;;;3.57;2.60;;;;;;;;;;5094876;28;20851;-70
2021/06/09 06:37:09;;;;;;;2.93;2.47;;;;;;;;;;5093347;28;20470;-68
2021/06/09 06:39:36;;;;;;;2.60;2.40;;;;;;;;;;5095456;28;20446;-70
2021/06/09 06:42:03;;;;;;;2.80;2.50;;;;;;;;;;5094091;28;20456;-70
2021/06/09 06:44:30;;;;;;;3.10;2.23;;;;;;;;;;5093403;28;20461;-70
2021/06/09 06:46:58;;;;;;;2.77;2.10;;;;;;;;;;5092163;28;20838;-70
2021/06/09 06:49:27;;;;;;;2.60;2.40;;;;;;;;;;5093064;28;20871;-69
2021/06/09 06:51:54;;;;;;;2.40;2.20;;;;;;;;;;5092631;28;20453;-70
2021/06/09 06:54:21;;;;;;;1.90;1.80;;;;;;;;;;5093253;28;20889;-67
2021/06/09 06:56:49;;;;;;;1.67;1.50;;;;;;;;;;5092224;28;20473;-70
2021/06/09 06:59:16;;;;;;;2.23;1.70;;;;;;;;;;5093111;28;20442;-68
2021/06/09 07:01:43;;;;;;;1.83;1.50;;;;;;;;;;5093537;28;20976;-70
2021/06/09 07:04:11;;;;;;;1.90;1.80;;;;;;;;;;5094400;28;20450;-70
2021/06/09 07:06:38;;;;;;;1.80;1.47;;;;;;;;;;5094168;28;20482;-70
2021/06/09 07:09:05;;;;;;;1.70;1.60;;;;;;;;;;5093591;28;20450;-70
2021/06/09 07:11:32;;;;;;;3.87;1.90;;;;;;;;;;5093291;28;20495;-69
2021/06/09 07:13:59;;;;;;;2.27;1.57;;;;;;;;;;5093111;28;20486;-69
2021/06/09 07:16:29;;;;;;;2.63;1.90;;;;;;;;;;5092159;28;21023;-69
2021/06/09 07:18:56;;;;;;;3.83;1.90;;;;;;;;;;5092973;28;20445;-70
2021/06/09 07:21:24;;;;;;;3.53;2.43;;;;;;;;;;5094121;28;20479;-68
2021/06/09 07:23:51;;;;;;;3.20;1.93;;;;;;;;;;5092027;28;20442;-66
2021/06/09 07:26:18;;;;;;;3.73;1.63;;;;;;;;;;5091411;28;20452;-69
2021/06/09 07:28:47;;;;;;;3.20;1.70;;;;;;;;;;5092176;28;20449;-68
2021/06/09 07:31:15;;;;;;;3.80;1.60;;;;;;;;;;5092044;28;20482;-68
2021/06/09 07:33:41;;;;;;;2.27;1.60;;;;;;;;;;5091774;28;20948;-68
2021/06/09 07:36:09;;;;;;;2.20;1.70;;;;;;;;;;5091470;28;20475;-69
2021/06/09 07:38:41;;;;;;;3.17;1.77;;;;;;;;;;5091931;28;20450;-69
2021/06/09 07:41:09;;;;;;;4.13;1.63;;;;;;;;;;5091977;28;20460;-67
2021/06/09 07:43:38;;;;;;;1.53;1.43;;;;;;;;;;5093049;28;20457;-65
2021/06/09 07:46:06;;;;;;;1.87;1.60;;;;;;;;;;5093453;28;20510;-65
2021/06/09 07:48:33;;;;;;;2.43;1.50;;;;;;;;;;5091838;28;20509;-69
2021/06/09 07:51:02;;;;;;;1.83;1.60;;;;;;;;;;5091913;28;20446;-69
2021/06/09 07:53:30;;;;;;;2.30;1.50;;;;;;;;;;5092076;28;20445;-70
2021/06/09 07:55:59;;;;;;;2.03;1.83;;;;;;;;;;5091060;28;20446;-68
2021/06/09 07:58:28;;;;;;;3.67;1.50;;;;;;;;;;5091680;28;20446;-70
2021/06/09 08:00:56;;;;;;;1.90;1.40;;;;;;;;;;5094006;28;20799;-70
2021/06/09 08:03:25;;;;;;;1.97;1.77;;;;;;;;;;5094574;28;20442;-69
2021/06/09 08:05:52;;;;;;;1.57;1.40;;;;;;;;;;5093464;28;20437;-69
2021/06/09 08:08:18;;;;;;;2.00;1.47;;;;;;;;;;5091273;28;20474;-69
2021/06/09 08:10:46;;;;;;;2.00;1.80;;;;;;;;;;5091799;28;20492;-70
2021/06/09 08:13:14;;;;;;;4.90;1.60;;;;;;;;;;5091887;28;20645;-65
2021/06/09 08:15:41;;;;;;;1.90;1.80;;;;;;;;;;5091099;28;20442;-66
2021/06/09 08:18:08;;;;;;;2.00;1.80;;;;;;;;;;5091689;28;20538;-65
2021/06/09 08:20:36;;;;;;;3.23;1.83;;;;;;;;;;5095852;28;20445;-68
2021/06/09 08:23:02;;;;;;;2.60;1.50;;;;;;;;;;5095594;28;21012;-67
2021/06/09 08:25:29;;;;;;;2.00;1.80;;;;;;;;;;5094808;28;20446;-66
2021/06/09 08:27:56;;;;;;;4.03;1.60;;;;;;;;;;5095293;28;20517;-66
2021/06/09 08:30:24;;;;;;;3.17;1.80;;;;;;;;;;5095642;28;20449;-65
2021/06/09 08:32:51;;;;;;;2.70;1.60;;;;;;;;;;5095592;28;20473;-66
2021/06/09 08:35:18;;;;;;;2.93;1.53;;;;;;;;;;5094584;28;20482;-66
2021/06/09 08:37:45;;;;;;;3.33;2.10;;;;;;;;;;5094726;28;20466;-66
2021/06/09 08:40:12;;;;;;;3.13;1.53;;;;;;;;;;5095097;28;20937;-66
2021/06/09 08:42:40;;;;;;;2.70;1.70;;;;;;;;;;5095521;28;20836;-68
2021/06/09 08:45:08;;;;;;;2.53;1.83;;;;;;;;;;5095139;28;20445;-65
2021/06/09 08:47:37;;;;;;;1.87;1.63;;;;;;;;;;5094677;28;20466;-66
2021/06/09 08:50:04;;;;;;;2.50;1.90;;;;;;;;;;5094996;28;20971;-66
2021/06/09 08:52:31;;;;;;;2.93;1.80;;;;;;;;;;5094860;28;20816;-65
2021/06/09 08:54:58;;;;;;;1.50;1.40;;;;;;;;;;5095163;28;20477;-66
2021/06/09 08:57:24;;;;;;;2.70;1.83;;;;;;;;;;5094103;28;20500;-66
2021/06/09 08:59:52;;;;;;;1.77;1.63;;;;;;;;;;5095186;28;20824;-66
2021/06/09 09:02:18;;;;;;;2.57;1.60;;;;;;;;;;5094843;28;20449;-66
2021/06/09 09:04:46;;;;;;;4.30;2.07;;;;;;;;;;5094786;28;20452;-66
2021/06/09 09:07:13;;;;;;;3.30;1.90;;;;;;;;;;5093411;28;20482;-65
2021/06/09 09:09:40;;;;;;;2.77;2.00;;;;;;;;;;5095006;28;20441;-67
2021/06/09 09:12:07;;;;;;;2.10;1.70;;;;;;;;;;5094820;28;20496;-65
2021/06/09 09:14:34;;;;;;;4.57;2.00;;;;;;;;;;5094186;28;20477;-66
2021/06/09 09:17:08;;;;;;;2.40;1.50;;;;;;;;;;5093924;28;20837;-65
2021/06/09 09:19:38;;;;;;;3.50;1.40;;;;;;;;;;5094492;28;20529;-67
2021/06/09 09:22:06;;;;;;;1.80;1.40;;;;;;;;;;5094578;28;20445;-65
2021/06/09 09:24:41;;;;;;;3.03;1.67;;;;;;;;;;5094310;28;20453;-66
2021/06/09 09:27:08;;;;;;;2.17;1.40;;;;;;;;;;5093722;28;20461;-68
2021/06/09 09:29:34;;;;;;;3.47;1.50;;;;;;;;;;5094018;28;20498;-66
2021/06/09 09:32:03;;;;;;;2.60;1.53;;;;;;;;;;5094064;28;20945;-68
2021/06/09 09:34:37;;;;;;;2.83;1.47;;;;;;;;;;5093890;28;20567;-66
2021/06/09 09:37:10;;;;;;;3.87;1.60;;;;;;;;;;5093613;28;20548;-66
2021/06/09 09:39:39;;;;;;;3.07;1.97;;;;;;;;;;5094334;28;20442;-67
2021/06/09 09:42:19;;;;;;;2.40;1.60;;;;;;;;;;5094722;28;20445;-67
2021/06/09 09:44:46;;;;;;;4.10;1.77;;;;;;;;;;5093526;28;20445;-66
2021/06/09 09:47:17;;;;;;;2.90;1.97;;;;;;;;;;5093450;28;20470;-66
2021/06/09 09:49:44;;;;;;;3.93;1.70;;;;;;;;;;5094026;28;20446;-66
2021/06/09 09:52:12;;;;;;;2.40;1.63;;;;;;;;;;5094341;28;20442;-67
2021/06/09 09:54:40;;;;;;;4.60;2.33;;;;;;;;;;5093766;28;20504;-68
2021/06/09 09:57:07;;;;;;;2.20;1.80;;;;;;;;;;5092730;28;20516;-69
2021/06/09 09:59:34;;;;;;;2.50;1.90;;;;;;;;;;5093712;28;20448;-66
2021/06/09 10:02:04;;;;;;;1.53;1.43;;;;;;;;;;5094009;28;20442;-66
2021/06/09 10:04:33;;;;;;;5.60;2.17;;;;;;;;;;5093657;28;20446;-66
2021/06/09 10:09:30;;;;;;;2.13;1.90;;;;;;;;;;5085438;28;20470;-69
2021/06/09 10:11:58;;;;;;;7.80;4.60;;;;;;;;;;5093563;28;20446;-69
2021/06/09 10:14:26;;;;;;;3.03;2.37;;;;;;;;;;5093738;28;20515;-69
2021/06/09 10:16:59;;;;;;;3.50;2.30;;;;;;;;;;5092825;28;20448;-69
2021/06/09 10:19:28;;;;;;;2.93;2.60;;;;;;;;;;5073268;28;20454;-69
2021/06/09 10:21:57;;;;;;;4.53;2.60;;;;;;;;;;5073449;28;20464;-70
2021/06/09 10:24:26;;;;;;;5.30;3.00;;;;;;;;;;5073681;28;20773;-69
2021/06/09 10:26:58;;;;;;;2.93;2.63;;;;;;;;;;5072647;28;20475;-69
2021/06/09 10:29:25;;;;;;;4.30;3.13;;;;;;;;;;5073545;28;20438;-69
2021/06/09 10:31:54;;;;;;;3.93;3.20;;;;;;;;;;5073381;28;20451;-69
2021/06/09 10:34:22;;;;;;;4.00;3.60;;;;;;;;;;5072953;28;21022;-69
2021/06/09 10:36:50;;;;;;;4.80;4.40;;;;;;;;;;5072546;28;20504;-69
2021/06/09 10:39:17;;;;;;;3.90;3.60;;;;;;;;;;5072712;28;20509;-69
2021/06/09 10:41:45;;;;;;;4.53;4.13;;;;;;;;;;5072061;28;20546;-69
2021/06/09 10:44:17;;;;;;;5.33;2.93;;;;;;;;;;5072666;28;20458;-69
2021/06/09 10:46:44;;;;;;;3.57;2.97;;;;;;;;;;5071845;28;20852;-69
2021/06/09 10:49:13;;;;;;;2.83;2.63;;;;;;;;;;5072276;28;20470;-69
2021/06/09 10:51:40;;;;;;;2.90;2.70;;;;;;;;;;5072570;28;20447;-69
2021/06/09 10:54:10;;;;;;;3.23;2.90;;;;;;;;;;5072288;28;21008;-69
2021/06/09 10:56:37;;;;;;;3.20;2.90;;;;;;;;;;5071707;28;20435;-69
2021/06/09 10:59:04;;;;;;;3.27;2.40;;;;;;;;;;5072250;28;20466;-69
2021/06/09 11:01:32;;;;;;;2.97;2.67;;;;;;;;;;5072383;28;20507;-69
2021/06/09 11:04:00;;;;;;;2.60;2.40;;;;;;;;;;5071941;28;20790;-69
2021/06/09 11:06:37;;;;;;;2.63;2.30;;;;;;;;;;5071501;28;20446;-69
2021/06/09 11:09:17;;;;;;;3.27;2.23;;;;;;;;;;5072000;28;20619;-68
2021/06/09 11:11:44;;;;;;;3.57;2.63;;;;;;;;;;5072272;28;20431;-69
2021/06/09 11:14:24;;;;;;;4.17;3.13;;;;;;;;;;5072056;28;20489;-69
2021/06/09 11:16:54;;;;;;;4.53;2.80;;;;;;;;;;5070962;28;20964;-69
2021/06/09 11:19:34;;;;;;;3.00;2.70;;;;;;;;;;5072182;28;20449;-69
2021/06/09 11:22:14;;;;;;;2.63;2.40;;;;;;;;;;5072192;28;20474;-69
2021/06/09 11:24:40;;;;;;;4.47;2.83;;;;;;;;;;5072256;28;20511;-68
2021/06/09 11:27:22;;;;;;;3.10;2.80;;;;;;;;;;5070367;28;20450;-68
2021/06/09 11:29:48;;;;;;;3.57;2.57;;;;;;;;;;5071914;28;20473;-68
2021/06/09 11:32:21;;;;;;;5.30;3.13;;;;;;;;;;5072707;28;20810;-68
2021/06/09 11:35:05;;;;;;;3.50;3.13;;;;;;;;;;5072664;28;20493;-68
2021/06/09 11:37:32;;;;;;;2.90;2.63;;;;;;;;;;5070932;28;20465;-69
2021/06/09 11:39:59;;;;;;;3.33;3.13;;;;;;;;;;5071849;28;20449;-68
2021/06/09 11:42:26;;;;;;;3.63;3.20;;;;;;;;;;5072059;28;20443;-68
2021/06/09 11:44:52;;;;;;;2.90;2.70;;;;;;;;;;5072136;28;20495;-68
2021/06/09 11:47:22;;;;;;;3.37;3.13;;;;;;;;;;5071889;28;20465;-69
2021/06/09 11:49:49;;;;;;;3.37;3.00;;;;;;;;;;5072982;28;20545;-69
2021/06/09 11:52:16;;;;;;;2.87;2.60;;;;;;;;;;5073140;28;20493;-69
2021/06/09 11:54:43;;;;;;;3.30;2.73;;;;;;;;;;5072200;28;20486;-69
2021/06/09 11:57:17;;;;;;;4.97;3.30;;;;;;;;;;5072458;28;20447;-69
2021/06/09 11:59:44;;;;;;;3.30;3.10;;;;;;;;;;5072953;28;20449;-69
2021/06/09 12:02:17;;;;;;;3.10;2.90;;;;;;;;;;5072638;28;20446;-69
2021/06/09 12:04:45;;;;;;;3.63;3.33;;;;;;;;;;5072184;28;20501;-69
2021/06/09 12:07:12;;;;;;;3.37;3.07;;;;;;;;;;5071809;28;20442;-69
2021/06/09 12:09:40;;;;;;;6.40;3.40;;;;;;;;;;5072597;28;20496;-69
2021/06/09 12:12:10;;;;;;;3.07;2.77;;;;;;;;;;5072719;28;20494;-69
2021/06/09 12:14:37;;;;;;;3.10;2.80;;;;;;;;;;5072376;28;20478;-69
2021/06/09 12:17:15;;;;;;;3.80;3.50;;;;;;;;;;5071847;28;20953;-69
2021/06/09 12:19:42;;;;;;;4.67;3.20;;;;;;;;;;5072283;28;20454;-69
2021/06/09 12:22:11;;;;;;;3.50;3.20;;;;;;;;;;5072891;28;20447;-69
2021/06/09 12:24:39;;;;;;;3.40;3.10;;;;;;;;;;5072843;28;20454;-69
2021/06/09 12:27:07;;;;;;;3.03;2.80;;;;;;;;;;5071887;28;20457;-69
2021/06/09 12:29:34;;;;;;;4.00;3.47;;;;;;;;;;5071476;28;20447;-69
2021/06/09 12:32:14;;;;;;;4.00;3.20;;;;;;;;;;5072230;28;20446;-69
2021/06/09 12:34:41;;;;;;;3.60;2.60;;;;;;;;;;5072667;28;20484;-69
2021/06/09 12:37:08;;;;;;;3.40;3.10;;;;;;;;;;5071601;28;20451;-69
2021/06/09 12:39:37;;;;;;;4.33;3.67;;;;;;;;;;5071859;28;20443;-69
2021/06/09 12:42:10;;;;;;;3.80;3.20;;;;;;;;;;5071601;28;20451;-69
2021/06/09 12:44:40;;;;;;;3.70;3.40;;;;;;;;;;5071509;28;20431;-69
2021/06/09 12:47:06;;;;;;;3.60;3.30;;;;;;;;;;5070936;28;20450;-69
2021/06/09 12:49:33;;;;;;;3.70;3.10;;;;;;;;;;5073177;28;20819;-69
2021/06/09 12:52:05;;;;;;;3.50;3.20;;;;;;;;;;5071107;28;20482;-69
2021/06/09 12:54:32;;;;;;;3.80;2.87;;;;;;;;;;5071188;28;20486;-69
2021/06/09 12:57:00;;;;;;;3.97;3.23;;;;;;;;;;5070851;28;20446;-69
2021/06/09 12:59:30;;;;;;;3.53;3.30;;;;;;;;;;5072641;28;20480;-69
2021/06/09 13:01:57;;;;;;;5.13;3.50;;;;;;;;;;5071576;28;20941;-69
2021/06/09 13:04:32;;;;;;;6.33;3.70;;;;;;;;;;5072711;28;20457;-69
2021/06/09 13:06:59;;;;;;;4.50;3.30;;;;;;;;;;5075232;28;20869;-69
2021/06/09 13:09:25;;;;;;;3.50;3.20;;;;;;;;;;5075677;28;20464;-69
2021/06/09 13:11:54;;;;;;;5.40;3.60;;;;;;;;;;5075741;28;20442;-69
2021/06/09 13:14:31;;;;;;;3.47;3.17;;;;;;;;;;5076129;28;20474;-69
2021/06/09 13:17:01;;;;;;;3.97;3.40;;;;;;;;;;5074894;28;20457;-69
2021/06/09 13:19:28;;;;;;;3.73;3.40;;;;;;;;;;5075180;28;20975;-69
2021/06/09 13:21:54;;;;;;;4.63;3.90;;;;;;;;;;5075917;28;20451;-67
2021/06/09 13:24:22;;;;;;;4.07;3.70;;;;;;;;;;5075478;28;20938;-68
2021/06/09 13:26:50;;;;;;;5.00;3.87;;;;;;;;;;5074540;28;20450;-68
2021/06/09 13:29:17;;;;;;;4.20;3.77;;;;;;;;;;5076534;28;20470;-68
2021/06/09 13:31:45;;;;;;;3.37;3.07;;;;;;;;;;5076001;28;20631;-68
2021/06/09 13:34:13;;;;;;;3.27;2.97;;;;;;;;;;5075857;28;20451;-68
2021/06/09 13:36:40;;;;;;;3.20;3.00;;;;;;;;;;5075705;28;20469;-68
2021/06/09 13:39:07;;;;;;;3.10;2.90;;;;;;;;;;5076371;28;20470;-68
2021/06/09 13:41:34;;;;;;;3.13;2.83;;;;;;;;;;5075888;28;20450;-68
2021/06/09 13:44:00;;;;;;;3.13;2.93;;;;;;;;;;5076540;28;20857;-68
2021/06/09 13:46:41;;;;;;;2.50;2.30;;;;;;;;;;5075414;28;20443;-68
2021/06/09 13:49:09;;;;;;;3.40;3.20;;;;;;;;;;5076662;28;20470;-68
2021/06/09 13:51:37;;;;;;;3.63;3.33;;;;;;;;;;5075988;28;20474;-68
2021/06/09 13:54:06;;;;;;;3.90;3.60;;;;;;;;;;5074961;28;20959;-68
2021/06/09 13:56:33;;;;;;;4.30;3.90;;;;;;;;;;5074317;28;20514;-68
2021/06/09 13:59:16;;;;;;;3.80;3.40;;;;;;;;;;5075224;28;20471;-68
2021/06/09 14:01:45;;;;;;;4.57;3.77;;;;;;;;;;5075250;28;20447;-68
2021/06/09 14:04:13;;;;;;;3.10;2.90;;;;;;;;;;5075271;28;20451;-68
2021/06/09 14:06:40;;;;;;;3.83;3.30;;;;;;;;;;5074549;28;20459;-68
2021/06/09 14:09:07;;;;;;;3.40;3.20;;;;;;;;;;5074785;28;20479;-68
2021/06/09 14:11:34;;;;;;;3.60;3.30;;;;;;;;;;5074239;28;20542;-68
2021/06/09 14:14:03;;;;;;;5.30;3.10;;;;;;;;;;5075324;28;20447;-68
2021/06/09 14:16:29;;;;;;;3.17;2.97;;;;;;;;;;5074390;28;20508;-68
2021/06/09 14:19:06;;;;;;;3.47;3.17;;;;;;;;;;5074738;28;20492;-68
2021/06/09 14:21:34;;;;;;;3.70;3.40;;;;;;;;;;5075319;28;20427;-68
2021/06/09 14:24:03;;;;;;;4.00;3.70;;;;;;;;;;5074800;28;20446;-68
2021/06/09 14:26:30;;;;;;;3.43;3.13;;;;;;;;;;5073360;28;20929;-68
2021/06/09 14:28:56;;;;;;;4.63;3.20;;;;;;;;;;5074334;28;20477;-67
2021/06/09 14:31:24;;;;;;;6.47;3.90;;;;;;;;;;5074819;28;20447;-68
2021/06/09 14:33:53;;;;;;;4.20;3.80;;;;;;;;;;5074485;28;20500;-68
2021/06/09 14:36:25;;;;;;;3.70;3.40;;;;;;;;;;5074002;28;20474;-68
2021/06/09 14:39:00;;;;;;;3.73;3.33;;;;;;;;;;5074356;28;20892;-67
2021/06/09 14:41:30;;;;;;;4.10;3.80;;;;;;;;;;5074583;28;20532;-68
2021/06/09 14:44:00;;;;;;;3.30;3.10;;;;;;;;;;5074157;28;20486;-68
2021/06/09 14:46:36;;;;;;;3.90;3.53;;;;;;;;;;5074378;28;20482;-68
2021/06/09 14:49:03;;;;;;;4.00;3.70;;;;;;;;;;5076127;28;20577;-68
2021/06/09 14:51:30;;;;;;;4.23;3.83;;;;;;;;;;5074953;28;20462;-68
2021/06/09 14:53:56;;;;;;;5.20;3.80;;;;;;;;;;5075443;28;20447;-67